createdAt,value
2018-06-30T00:00:02.571Z,46.26
2018-06-30T00:02:08.358Z,47.10
2018-06-30T00:04:13.722Z,46.32
2018-06-30T00:06:19.181Z,46.42
2018-06-30T00:08:24.544Z,47.29
2018-06-30T00:10:30.912Z,46.65
2018-06-30T00:12:36.450Z,47.38
2018-06-30T00:14:41.808Z,47.16
2018-06-30T00:16:47.158Z,46.91
2018-06-30T00:18:52.588Z,46.87
2018-06-30T00:20:57.618Z,46.98
2018-06-30T00:23:02.566Z,47.84
2018-06-30T00:25:07.901Z,47.10
2018-06-30T00:27:18.399Z,47.22
2018-06-30T00:29:23.707Z,48.01
2018-06-30T00:31:29.887Z,47.32
2018-06-30T00:33:35.629Z,48.24
2018-06-30T00:35:41.175Z,48.41
2018-06-30T00:37:46.769Z,47.64
2018-06-30T00:39:52.132Z,48.15
2018-06-30T00:41:57.583Z,47.84
2018-06-30T00:44:03.452Z,48.33
2018-06-30T00:46:08.897Z,47.93
2018-06-30T00:48:14.284Z,48.81
2018-06-30T00:50:19.637Z,48.16
2018-06-30T00:52:24.964Z,48.82
2018-06-30T00:54:30.317Z,48.32
2018-06-30T00:56:35.684Z,48.30
2018-06-30T00:58:41.033Z,48.77
2018-06-30T01:00:46.377Z,49.11
2018-06-30T01:02:51.671Z,48.32
2018-06-30T01:04:57.361Z,48.59
2018-06-30T01:07:02.813Z,48.69
2018-06-30T01:09:08.979Z,48.78
2018-06-30T01:11:14.088Z,48.82
2018-06-30T01:13:19.409Z,48.78
2018-06-30T01:15:24.891Z,48.96
2018-06-30T01:17:30.330Z,48.86
2018-06-30T01:19:35.681Z,48.95
2018-06-30T01:21:41.021Z,48.80
2018-06-30T01:23:46.328Z,49.77
2018-06-30T01:25:52.139Z,48.97
2018-06-30T01:27:57.458Z,48.86
2018-06-30T01:30:02.855Z,49.57
2018-06-30T01:32:08.221Z,48.74
2018-06-30T01:34:13.688Z,49.07
2018-06-30T01:36:19.045Z,49.53
2018-06-30T01:38:24.359Z,49.05
2018-06-30T01:40:30.091Z,49.61
2018-06-30T01:42:35.692Z,49.09
2018-06-30T01:44:40.760Z,49.82
2018-06-30T01:46:46.095Z,48.81
2018-06-30T01:48:51.379Z,48.95
2018-06-30T01:50:56.750Z,48.88
2018-06-30T01:53:02.114Z,49.54
2018-06-30T01:55:07.549Z,49.90
2018-06-30T01:57:12.894Z,49.03
2018-06-30T01:59:18.185Z,49.84
2018-06-30T02:01:23.186Z,50.01
2018-06-30T02:03:29.153Z,49.29
2018-06-30T02:05:34.498Z,49.59
2018-06-30T02:07:39.876Z,49.54
2018-06-30T02:09:45.195Z,49.72
2018-06-30T02:11:50.906Z,50.45
2018-06-30T02:13:56.561Z,49.80
2018-06-30T02:16:01.947Z,49.89
2018-06-30T02:18:07.327Z,50.06
2018-06-30T02:20:12.707Z,50.43
2018-06-30T02:22:18.272Z,51.07
2018-06-30T02:24:23.577Z,50.49
2018-06-30T02:26:28.929Z,51.21
2018-06-30T02:28:34.285Z,51.21
2018-06-30T02:30:39.576Z,51.53
2018-06-30T02:32:44.581Z,51.03
2018-06-30T02:34:49.635Z,50.97
2018-06-30T02:36:54.978Z,50.89
2018-06-30T02:39:00.016Z,51.71
2018-06-30T02:41:05.231Z,51.23
2018-06-30T02:43:10.303Z,51.85
2018-06-30T02:45:15.533Z,50.95
2018-06-30T02:47:20.907Z,50.71
2018-06-30T02:49:26.384Z,51.06
2018-06-30T02:51:32.708Z,51.44
2018-06-30T02:53:38.089Z,51.46
2018-06-30T02:55:43.536Z,50.53
2018-06-30T02:57:48.896Z,50.61
2018-06-30T02:59:54.967Z,51.40
2018-06-30T03:02:00.271Z,51.22
2018-06-30T03:04:05.621Z,51.42
2018-06-30T03:06:11.140Z,50.54
2018-06-30T03:08:16.748Z,50.47
2018-06-30T03:10:22.015Z,51.22
2018-06-30T03:12:27.343Z,50.69
2018-06-30T03:14:32.780Z,50.59
2018-06-30T03:16:38.135Z,50.63
2018-06-30T03:18:43.497Z,51.33
2018-06-30T03:20:48.790Z,51.54
2018-06-30T03:22:54.133Z,51.53
2018-06-30T03:24:59.517Z,50.91
2018-06-30T03:27:04.915Z,51.64
2018-06-30T03:29:10.254Z,51.23
2018-06-30T03:31:15.585Z,51.75
2018-06-30T03:33:21.088Z,51.78
2018-06-30T03:35:26.559Z,51.47
2018-06-30T03:37:31.629Z,51.31
2018-06-30T03:39:36.826Z,51.57
2018-06-30T03:41:42.133Z,52.04
2018-06-30T03:43:47.547Z,52.04
2018-06-30T03:45:53.436Z,51.50
2018-06-30T03:47:58.824Z,52.14
2018-06-30T03:50:04.356Z,51.39
2018-06-30T03:52:09.647Z,52.10
2018-06-30T03:54:15.966Z,51.28
2018-06-30T03:56:21.335Z,51.71
2018-06-30T03:58:26.701Z,51.86
2018-06-30T04:00:32.020Z,51.40
2018-06-30T04:02:37.562Z,52.12
2018-06-30T04:04:42.926Z,51.94
2018-06-30T04:06:48.270Z,52.22
2018-06-30T04:08:53.608Z,52.19
2018-06-30T04:10:59.038Z,51.42
2018-06-30T04:13:04.430Z,51.40
2018-06-30T04:15:09.878Z,51.42
2018-06-30T04:17:15.183Z,52.33
2018-06-30T04:19:20.510Z,52.23
2018-06-30T04:21:25.808Z,51.41
2018-06-30T04:23:31.124Z,51.96
2018-06-30T04:25:36.849Z,52.20
2018-06-30T04:27:42.136Z,51.61
2018-06-30T04:29:47.454Z,52.50
2018-06-30T04:31:52.811Z,51.26
2018-06-30T04:33:57.861Z,51.71
2018-06-30T04:36:03.211Z,51.67
2018-06-30T04:38:08.692Z,52.48
2018-06-30T04:40:14.032Z,52.50
2018-06-30T04:42:19.378Z,51.79
2018-06-30T04:44:24.748Z,52.30
2018-06-30T04:46:30.041Z,51.99
2018-06-30T04:48:35.549Z,52.04
2018-06-30T04:50:40.884Z,51.96
2018-06-30T04:52:47.427Z,52.67
2018-06-30T04:54:52.709Z,52.39
2018-06-30T04:56:58.114Z,52.62
2018-06-30T04:59:03.531Z,52.84
2018-06-30T05:01:08.916Z,53.12
2018-06-30T05:03:14.219Z,52.52
2018-06-30T05:05:19.525Z,53.16
2018-06-30T05:07:24.854Z,53.27
2018-06-30T05:09:29.855Z,52.31
2018-06-30T05:11:35.155Z,52.42
2018-06-30T05:13:40.551Z,52.55
2018-06-30T05:15:46.004Z,52.34
2018-06-30T05:17:50.988Z,52.78
2018-06-30T05:19:56.184Z,52.23
2018-06-30T05:22:01.555Z,52.40
2018-06-30T05:24:07.035Z,52.46
2018-06-30T05:26:12.380Z,52.35
2018-06-30T05:28:17.815Z,52.10
2018-06-30T05:30:23.271Z,51.75
2018-06-30T05:32:28.603Z,52.47
2018-06-30T05:34:33.943Z,52.03
2018-06-30T05:36:39.227Z,51.98
2018-06-30T05:38:44.621Z,52.37
2018-06-30T05:40:50.142Z,52.30
2018-06-30T05:42:55.459Z,52.17
2018-06-30T05:45:00.923Z,51.25
2018-06-30T05:47:06.384Z,51.31
2018-06-30T05:49:11.730Z,51.17
2018-06-30T05:51:17.064Z,51.89
2018-06-30T05:53:22.480Z,51.66
2018-06-30T05:55:27.524Z,51.30
2018-06-30T05:57:32.796Z,50.98
2018-06-30T05:59:38.175Z,51.29
2018-06-30T06:01:43.626Z,51.31
2018-06-30T06:03:48.682Z,51.01
2018-06-30T06:05:53.941Z,50.90
2018-06-30T06:07:59.379Z,50.75
2018-06-30T06:10:04.982Z,50.61
2018-06-30T06:12:11.168Z,50.41
2018-06-30T06:14:16.470Z,49.42
2018-06-30T06:16:21.871Z,49.27
2018-06-30T06:18:27.268Z,49.24
2018-06-30T06:20:32.664Z,48.77
2018-06-30T06:22:38.210Z,48.29
2018-06-30T06:24:43.561Z,47.17
2018-06-30T06:26:48.953Z,46.08
2018-06-30T06:28:54.452Z,45.50
2018-06-30T06:31:00.473Z,45.29
2018-06-30T06:33:05.895Z,43.55
2018-06-30T06:35:11.341Z,42.81
2018-06-30T06:37:16.808Z,41.98
2018-06-30T06:39:22.181Z,41.31
2018-06-30T06:41:27.190Z,40.18
2018-06-30T06:43:32.487Z,39.59
2018-06-30T06:45:37.947Z,38.74
2018-06-30T06:47:43.266Z,37.87
2018-06-30T06:49:48.703Z,37.46
2018-06-30T06:51:54.364Z,37.27
2018-06-30T06:53:59.765Z,36.81
2018-06-30T06:56:05.228Z,35.79
2018-06-30T06:58:10.605Z,34.73
2018-06-30T07:00:16.001Z,34.57
2018-06-30T07:02:21.348Z,33.68
2018-06-30T07:04:26.768Z,33.56
2018-06-30T07:06:33.168Z,32.65
2018-06-30T07:08:38.568Z,31.98
2018-06-30T07:10:43.945Z,31.74
2018-06-30T07:12:49.418Z,31.33
2018-06-30T07:14:54.837Z,30.78
2018-06-30T07:17:00.233Z,30.44
2018-06-30T07:19:05.625Z,29.73
2018-06-30T07:21:11.090Z,29.73
2018-06-30T07:23:16.484Z,29.40
2018-06-30T07:25:21.944Z,29.17
2018-06-30T07:27:27.333Z,28.80
2018-06-30T07:29:32.767Z,28.31
2018-06-30T07:31:38.161Z,28.56
2018-06-30T07:33:43.530Z,28.95
2018-06-30T07:35:48.955Z,28.27
2018-06-30T07:37:54.286Z,28.67
2018-06-30T07:39:59.784Z,28.16
2018-06-30T07:42:05.319Z,28.24
2018-06-30T07:44:10.753Z,28.61
2018-06-30T07:46:16.293Z,28.47
2018-06-30T07:48:21.668Z,28.55
2018-06-30T07:50:27.059Z,28.67
2018-06-30T07:52:32.483Z,29.44
2018-06-30T07:54:37.824Z,29.11
2018-06-30T07:56:43.211Z,29.46
2018-06-30T07:58:49.195Z,29.47
2018-06-30T08:00:54.646Z,29.70
2018-06-30T08:02:59.960Z,30.75
2018-06-30T08:05:05.602Z,30.02
2018-06-30T08:07:11.088Z,30.25
2018-06-30T08:09:16.458Z,31.38
2018-06-30T08:11:21.835Z,31.33
2018-06-30T08:13:27.209Z,31.49
2018-06-30T08:15:32.701Z,32.02
2018-06-30T08:17:38.028Z,31.36
2018-06-30T08:19:43.339Z,31.73
2018-06-30T08:21:48.796Z,31.56
2018-06-30T08:23:54.335Z,31.13
2018-06-30T08:26:00.361Z,31.51
2018-06-30T08:28:06.323Z,31.26
2018-06-30T08:30:11.734Z,31.87
2018-06-30T08:32:17.103Z,31.42
2018-06-30T08:34:22.449Z,32.46
2018-06-30T08:36:28.524Z,31.56
2018-06-30T08:38:33.945Z,31.61
2018-06-30T08:40:39.312Z,31.60
2018-06-30T08:42:44.791Z,32.35
2018-06-30T08:44:50.348Z,32.13
2018-06-30T08:46:55.712Z,32.88
2018-06-30T08:49:01.051Z,32.32
2018-06-30T08:51:06.558Z,32.28
2018-06-30T08:53:14.736Z,31.76
2018-06-30T08:55:20.215Z,32.90
2018-06-30T08:57:25.603Z,32.49
2018-06-30T08:59:31.074Z,32.37
2018-06-30T09:01:36.487Z,32.74
2018-06-30T09:03:41.841Z,32.56
2018-06-30T09:05:47.304Z,31.77
2018-06-30T09:07:52.716Z,32.60
2018-06-30T09:09:58.164Z,31.85
2018-06-30T09:12:03.842Z,32.54
2018-06-30T09:14:09.379Z,32.51
2018-06-30T09:16:14.882Z,33.10
2018-06-30T09:18:19.924Z,32.54
2018-06-30T09:20:25.254Z,31.92
2018-06-30T09:22:30.628Z,33.15
2018-06-30T09:24:36.046Z,32.68
2018-06-30T09:26:41.505Z,32.17
2018-06-30T09:28:47.776Z,31.81
2018-06-30T09:30:53.267Z,32.14
2018-06-30T09:32:58.650Z,32.13
2018-06-30T09:35:04.186Z,31.77
2018-06-30T09:37:09.650Z,32.60
2018-06-30T09:39:15.039Z,31.73
2018-06-30T09:41:20.794Z,32.23
2018-06-30T09:43:26.318Z,31.93
2018-06-30T09:45:31.742Z,32.57
2018-06-30T09:47:37.150Z,32.33
2018-06-30T09:49:42.246Z,32.72
2018-06-30T09:51:47.536Z,32.04
2018-06-30T09:53:52.949Z,31.50
2018-06-30T09:55:58.304Z,31.66
2018-06-30T09:58:03.736Z,31.49
2018-06-30T10:00:09.946Z,32.47
2018-06-30T10:02:15.610Z,32.49
2018-06-30T10:04:20.927Z,31.02
2018-06-30T10:06:26.419Z,31.77
2018-06-30T10:08:31.946Z,31.97
2018-06-30T10:10:37.371Z,31.69
2018-06-30T10:12:42.792Z,32.02
2018-06-30T10:14:48.196Z,31.81
2018-06-30T10:16:53.599Z,31.26
2018-06-30T10:18:58.991Z,32.20
2018-06-30T10:21:04.550Z,31.52
2018-06-30T10:23:09.724Z,31.04
2018-06-30T10:25:15.150Z,31.43
2018-06-30T10:27:21.291Z,32.29
2018-06-30T10:29:28.487Z,31.35
2018-06-30T10:31:34.076Z,31.07
2018-06-30T10:33:39.390Z,32.20
2018-06-30T10:35:44.833Z,31.18
2018-06-30T10:37:50.558Z,32.35
2018-06-30T10:39:56.324Z,31.10
2018-06-30T10:42:02.373Z,31.33
2018-06-30T10:44:07.896Z,31.27
2018-06-30T10:46:13.513Z,31.75
2018-06-30T10:48:19.437Z,32.27
2018-06-30T10:50:24.940Z,31.35
2018-06-30T10:52:30.884Z,31.69
2018-06-30T10:54:36.148Z,31.92
2018-06-30T10:56:41.682Z,30.91
2018-06-30T10:58:47.371Z,31.33
2018-06-30T11:00:52.781Z,31.47
2018-06-30T11:02:58.541Z,31.15
2018-06-30T11:05:04.106Z,30.60
2018-06-30T11:07:09.525Z,30.49
2018-06-30T11:09:14.923Z,30.70
2018-06-30T11:11:20.418Z,31.22
2018-06-30T11:13:25.830Z,30.43
2018-06-30T11:15:31.237Z,30.80
2018-06-30T11:17:36.864Z,30.04
2018-06-30T11:19:42.365Z,29.95
2018-06-30T11:21:56.490Z,30.14
2018-06-30T11:24:02.729Z,29.47
2018-06-30T11:26:07.823Z,30.33
2018-06-30T11:28:13.167Z,28.70
2018-06-30T11:30:18.520Z,28.41
2018-06-30T11:32:23.962Z,28.59
2018-06-30T11:34:29.707Z,29.69
2018-06-30T11:36:35.303Z,28.89
2018-06-30T11:38:40.683Z,29.54
2018-06-30T11:40:46.368Z,29.79
2018-06-30T11:42:52.685Z,29.39
2018-06-30T11:44:57.977Z,29.20
2018-06-30T11:47:03.369Z,29.00
2018-06-30T11:49:08.797Z,29.50
2018-06-30T11:51:14.208Z,29.26
2018-06-30T11:53:19.818Z,28.62
2018-06-30T11:55:25.711Z,28.06
2018-06-30T11:57:31.172Z,29.42
2018-06-30T11:59:36.532Z,28.41
2018-06-30T12:01:43.202Z,29.30
2018-06-30T12:03:48.618Z,28.31
2018-06-30T12:06:00.593Z,28.03
2018-06-30T12:08:06.179Z,28.31
2018-06-30T12:10:11.836Z,28.87
2018-06-30T12:12:17.216Z,28.16
2018-06-30T12:14:22.663Z,28.99
2018-06-30T12:16:28.107Z,28.61
2018-06-30T12:18:33.668Z,28.27
2018-06-30T12:20:39.285Z,28.27
2018-06-30T12:22:44.755Z,28.14
2018-06-30T12:24:50.203Z,28.39
2018-06-30T12:26:55.584Z,28.24
2018-06-30T12:29:00.976Z,28.67
2018-06-30T12:31:06.518Z,27.89
2018-06-30T12:33:11.929Z,28.76
2018-06-30T12:35:17.408Z,28.58
2018-06-30T12:37:23.412Z,28.20
2018-06-30T12:39:28.724Z,28.81
2018-06-30T12:41:34.141Z,27.80
2018-06-30T12:43:39.600Z,28.14
2018-06-30T12:45:45.062Z,27.91
2018-06-30T12:47:50.464Z,28.55
2018-06-30T12:49:55.982Z,27.85
2018-06-30T12:52:01.473Z,28.81
2018-06-30T12:54:06.972Z,28.92
2018-06-30T12:56:12.400Z,27.89
2018-06-30T12:58:17.868Z,27.78
2018-06-30T13:00:23.250Z,28.86
2018-06-30T13:02:28.746Z,28.86
2018-06-30T13:04:33.815Z,27.88
2018-06-30T13:06:39.256Z,28.00
2018-06-30T13:08:44.792Z,27.53
2018-06-30T13:10:50.281Z,27.71
2018-06-30T13:12:55.711Z,27.87
2018-06-30T13:15:01.092Z,28.34
2018-06-30T13:17:06.749Z,28.23
2018-06-30T13:19:12.107Z,28.44
2018-06-30T13:21:18.569Z,28.19
2018-06-30T13:23:23.936Z,28.35
2018-06-30T13:25:29.325Z,27.54
2018-06-30T13:27:34.677Z,28.08
2018-06-30T13:29:57.713Z,28.30
2018-06-30T13:32:05.938Z,28.40
2018-06-30T13:34:14.681Z,28.22
2018-06-30T13:37:47.422Z,27.75
2018-06-30T13:39:53.129Z,27.62
2018-06-30T13:41:58.518Z,27.94
2018-06-30T13:44:04.700Z,27.78
2018-06-30T13:46:10.340Z,27.60
2018-06-30T13:48:15.705Z,28.38
2018-06-30T13:50:21.160Z,27.82
2018-06-30T13:52:29.485Z,27.55
2018-06-30T13:54:49.685Z,28.19
2018-06-30T13:56:57.305Z,28.17
2018-06-30T13:59:02.666Z,28.51
2018-06-30T14:01:08.160Z,28.02
2018-06-30T14:03:13.571Z,27.94
2018-06-30T14:05:18.977Z,28.03
2018-06-30T14:07:27.355Z,27.66
2018-06-30T14:09:32.828Z,28.10
2018-06-30T14:11:38.318Z,27.94
2018-06-30T14:13:43.848Z,27.93
2018-06-30T14:15:49.313Z,27.50
2018-06-30T14:17:54.652Z,28.22
2018-06-30T14:20:00.022Z,28.28
2018-06-30T14:22:05.533Z,27.58
2018-06-30T14:24:10.964Z,27.27
2018-06-30T14:26:16.400Z,27.44
2018-06-30T14:28:21.734Z,28.29
2018-06-30T14:30:27.202Z,28.16
2018-06-30T14:32:33.391Z,28.07
2018-06-30T14:34:38.736Z,28.30
2018-06-30T14:36:44.158Z,27.28
2018-06-30T14:38:49.655Z,28.30
2018-06-30T14:40:55.082Z,27.71
2018-06-30T14:43:00.584Z,27.54
2018-06-30T14:45:06.507Z,27.59
2018-06-30T14:47:11.872Z,27.84
2018-06-30T14:49:17.275Z,27.96
2018-06-30T14:51:29.772Z,28.41
2018-06-30T14:53:41.089Z,27.17
2018-06-30T14:55:46.493Z,27.50
2018-06-30T14:57:51.836Z,28.17
2018-06-30T14:59:57.963Z,27.88
2018-06-30T15:02:03.454Z,27.53
2018-06-30T15:04:09.732Z,27.82
2018-06-30T15:06:18.549Z,28.19
2018-06-30T15:08:25.518Z,27.79
2018-06-30T15:10:31.027Z,28.12
2018-06-30T15:12:36.496Z,28.31
2018-06-30T15:14:41.553Z,27.71
2018-06-30T15:16:46.841Z,27.72
2018-06-30T15:18:52.393Z,28.20
2018-06-30T15:20:57.819Z,27.50
2018-06-30T15:23:03.233Z,27.69
2018-06-30T15:25:08.683Z,28.15
2018-06-30T15:27:14.117Z,27.60
2018-06-30T15:29:19.532Z,27.60
2018-06-30T15:31:24.863Z,28.61
2018-06-30T15:33:30.896Z,28.39
2018-06-30T15:35:36.396Z,28.39
2018-06-30T15:37:41.902Z,27.72
2018-06-30T15:39:47.288Z,28.58
2018-06-30T15:41:52.669Z,27.91
2018-06-30T15:43:58.123Z,28.31
2018-06-30T15:46:03.728Z,27.71
2018-06-30T15:48:09.265Z,28.47
2018-06-30T15:50:15.480Z,28.66
2018-06-30T15:52:21.060Z,27.81
2018-06-30T15:54:26.516Z,27.99
2018-06-30T15:56:31.894Z,27.83
2018-06-30T15:58:37.302Z,27.99
2018-06-30T16:00:42.688Z,28.71
2018-06-30T16:02:48.167Z,28.67
2018-06-30T16:04:53.520Z,28.74
2018-06-30T16:06:58.923Z,27.82
2018-06-30T16:09:06.168Z,28.05
2018-06-30T16:11:11.622Z,27.97
2018-06-30T16:13:16.994Z,27.94
2018-06-30T16:15:22.470Z,28.65
2018-06-30T16:17:27.944Z,28.58
2018-06-30T16:19:33.407Z,28.04
2018-06-30T16:21:38.835Z,28.36
2018-06-30T16:23:44.315Z,27.73
2018-06-30T16:25:49.683Z,28.42
2018-06-30T16:27:55.028Z,27.80
2018-06-30T16:30:00.486Z,28.39
2018-06-30T16:32:05.896Z,27.89
2018-06-30T16:34:11.363Z,27.92
2018-06-30T16:36:16.837Z,28.61
2018-06-30T16:38:21.853Z,29.04
2018-06-30T16:40:27.096Z,28.53
2018-06-30T16:42:32.507Z,27.81
2018-06-30T16:44:37.972Z,27.61
2018-06-30T16:46:43.493Z,27.59
2018-06-30T16:48:48.888Z,28.49
2018-06-30T16:50:54.260Z,27.92
2018-06-30T16:53:00.670Z,27.66
2018-06-30T16:55:05.796Z,28.62
2018-06-30T16:57:11.326Z,27.80
2018-06-30T16:59:16.400Z,28.11
2018-06-30T17:01:22.373Z,27.84
2018-06-30T17:03:27.727Z,27.95
2018-06-30T17:05:33.048Z,28.07
2018-06-30T17:07:38.374Z,28.38
2018-06-30T17:09:43.869Z,28.51
2018-06-30T17:11:49.221Z,27.52
2018-06-30T17:13:54.729Z,27.75
2018-06-30T17:16:00.366Z,28.14
2018-06-30T17:18:05.811Z,28.18
2018-06-30T17:20:11.336Z,27.34
2018-06-30T17:22:16.712Z,27.58
2018-06-30T17:24:22.059Z,27.29
2018-06-30T17:26:27.114Z,27.48
2018-06-30T17:28:32.888Z,27.28
2018-06-30T17:30:38.792Z,28.19
2018-06-30T17:32:44.782Z,28.11
2018-06-30T17:34:50.494Z,27.49
2018-06-30T17:36:55.531Z,27.44
2018-06-30T17:39:00.864Z,28.08
2018-06-30T17:41:06.386Z,28.19
2018-06-30T17:43:11.807Z,28.07
2018-06-30T17:45:17.164Z,27.65
2018-06-30T17:47:22.706Z,27.26
2018-06-30T17:49:28.145Z,27.44
2018-06-30T17:51:33.650Z,26.91
2018-06-30T17:53:39.841Z,26.77
2018-06-30T17:55:45.314Z,27.81
2018-06-30T17:57:50.840Z,27.76
2018-06-30T17:59:56.312Z,27.21
2018-06-30T18:02:01.729Z,27.02
2018-06-30T18:04:09.124Z,27.60
2018-06-30T18:06:14.628Z,27.16
2018-06-30T18:08:20.135Z,27.45
2018-06-30T18:10:25.509Z,26.39
2018-06-30T18:12:30.939Z,27.51
2018-06-30T18:14:36.330Z,27.25
2018-06-30T18:16:41.882Z,26.28
2018-06-30T18:18:47.685Z,27.13
2018-06-30T18:20:53.068Z,26.66
2018-06-30T18:22:58.395Z,27.36
2018-06-30T18:25:04.034Z,27.06
2018-06-30T18:27:09.861Z,26.12
2018-06-30T18:29:15.581Z,26.05
2018-06-30T18:31:21.302Z,27.33
2018-06-30T18:33:26.907Z,26.14
2018-06-30T18:35:32.298Z,27.32
2018-06-30T18:37:37.725Z,26.58
2018-06-30T18:39:43.700Z,25.90
2018-06-30T18:41:49.218Z,26.52
2018-06-30T18:43:54.600Z,26.42
2018-06-30T18:46:00.013Z,26.41
2018-06-30T18:48:05.594Z,26.74
2018-06-30T18:50:11.499Z,26.59
2018-06-30T18:52:16.893Z,25.73
2018-06-30T18:54:22.299Z,25.46
2018-06-30T18:56:27.929Z,26.06
2018-06-30T18:58:33.335Z,25.30
2018-06-30T19:00:38.769Z,25.09
2018-06-30T19:02:44.172Z,26.12
2018-06-30T19:04:49.573Z,25.06
2018-06-30T19:06:55.522Z,25.92
2018-06-30T19:09:00.922Z,25.52
2018-06-30T19:11:06.493Z,25.70
2018-06-30T19:13:11.925Z,25.97
2018-06-30T19:15:17.478Z,25.92
2018-06-30T19:17:22.897Z,24.88
2018-06-30T19:19:28.312Z,24.72
2018-06-30T19:21:33.772Z,25.12
2018-06-30T19:23:39.145Z,25.52
2018-06-30T19:25:44.604Z,24.50
2018-06-30T19:27:49.700Z,24.59
2018-06-30T19:29:54.983Z,24.71
2018-06-30T19:32:00.450Z,24.79
2018-06-30T19:34:05.835Z,24.18
2018-06-30T19:36:11.221Z,24.88
2018-06-30T19:38:16.591Z,24.73
2018-06-30T19:40:22.059Z,24.16
2018-06-30T19:42:27.567Z,24.97
2018-06-30T19:44:32.992Z,25.09
2018-06-30T19:46:38.684Z,24.14
2018-06-30T19:48:44.059Z,24.60
2018-06-30T19:50:49.449Z,24.03
2018-06-30T19:52:55.550Z,24.34
2018-06-30T19:55:00.571Z,23.97
2018-06-30T19:57:06.388Z,24.74
2018-06-30T19:59:11.801Z,23.83
2018-06-30T20:01:17.250Z,24.60
2018-06-30T20:03:22.739Z,24.62
2018-06-30T20:05:28.260Z,23.64
2018-06-30T20:07:38.721Z,23.64
2018-06-30T20:09:44.166Z,23.69
2018-06-30T20:11:49.548Z,24.49
2018-06-30T20:13:55.510Z,23.95
2018-06-30T20:16:01.029Z,23.99
2018-06-30T20:18:06.482Z,24.38
2018-06-30T20:20:12.243Z,23.50
2018-06-30T20:22:17.631Z,23.41
2018-06-30T20:24:22.983Z,24.00
2018-06-30T20:26:28.381Z,24.26
2018-06-30T20:28:34.080Z,22.98
2018-06-30T20:30:39.521Z,24.35
2018-06-30T20:32:45.027Z,24.17
2018-06-30T20:34:50.392Z,23.23
2018-06-30T20:36:55.760Z,23.56
2018-06-30T20:39:01.158Z,23.66
2018-06-30T20:41:06.706Z,23.27
2018-06-30T20:43:12.123Z,23.94
2018-06-30T20:45:17.744Z,23.48
2018-06-30T20:47:23.140Z,23.68
2018-06-30T20:49:31.504Z,23.42
2018-06-30T20:51:37.836Z,22.66
2018-06-30T20:53:43.431Z,23.06
2018-06-30T20:55:48.868Z,22.57
2018-06-30T20:57:54.025Z,23.52
2018-06-30T20:59:59.397Z,22.45
2018-06-30T21:02:04.852Z,23.74
2018-06-30T21:04:10.472Z,22.30
2018-06-30T21:06:15.964Z,22.27
2018-06-30T21:08:21.375Z,23.65
2018-06-30T21:10:26.991Z,22.93
2018-06-30T21:12:32.424Z,23.05
2018-06-30T21:14:37.751Z,23.42
2018-06-30T21:16:43.142Z,22.65
2018-06-30T21:18:48.256Z,23.57
2018-06-30T21:20:53.630Z,22.79
2018-06-30T21:22:59.076Z,22.42
2018-06-30T21:25:05.446Z,23.08
2018-06-30T21:27:10.910Z,22.35
2018-06-30T21:29:16.298Z,22.84
2018-06-30T21:31:21.794Z,22.75
2018-06-30T21:33:27.239Z,22.66
2018-06-30T21:35:32.600Z,23.14
2018-06-30T21:37:37.980Z,22.88
2018-06-30T21:39:43.322Z,22.37
2018-06-30T21:41:48.716Z,22.63
2018-06-30T21:43:54.098Z,22.56
2018-06-30T21:45:59.528Z,23.39
2018-06-30T21:48:05.000Z,23.40
2018-06-30T21:50:10.497Z,23.27
2018-06-30T21:52:16.125Z,22.89
2018-06-30T21:54:21.257Z,23.43
2018-06-30T21:56:26.635Z,23.39
2018-06-30T21:58:32.007Z,22.58
2018-06-30T22:00:51.040Z,23.82
2018-06-30T22:02:56.591Z,22.46
2018-06-30T22:05:02.128Z,23.41
2018-06-30T22:07:07.710Z,22.67
2018-06-30T22:09:13.119Z,23.20
2018-06-30T22:11:18.482Z,23.22
2018-06-30T22:13:23.843Z,23.81
2018-06-30T22:15:29.241Z,23.46
2018-06-30T22:17:34.646Z,23.44
2018-06-30T22:19:39.995Z,22.91
2018-06-30T22:21:45.402Z,23.05
2018-06-30T22:23:50.869Z,23.67
2018-06-30T22:25:56.308Z,23.10
2018-06-30T22:28:02.142Z,23.48
2018-06-30T22:30:07.577Z,23.22
2018-06-30T22:32:12.978Z,22.78
2018-06-30T22:34:18.386Z,23.82
2018-06-30T22:36:23.786Z,23.62
2018-06-30T22:38:29.152Z,23.54
2018-06-30T22:40:34.567Z,22.87
2018-06-30T22:42:39.979Z,22.68
2018-06-30T22:44:45.393Z,22.70
2018-06-30T22:46:50.842Z,23.24
2018-06-30T22:48:56.297Z,23.62
2018-06-30T22:51:01.723Z,23.68
2018-06-30T22:53:07.207Z,23.73
2018-06-30T22:55:12.759Z,23.22
2018-06-30T22:57:18.108Z,23.86
2018-06-30T22:59:23.486Z,23.78
2018-06-30T23:01:28.949Z,22.97
2018-06-30T23:03:34.346Z,23.75
2018-06-30T23:05:40.416Z,23.96
2018-06-30T23:07:45.876Z,23.26
2018-06-30T23:09:51.467Z,23.91
2018-06-30T23:11:56.892Z,23.94
2018-06-30T23:14:02.401Z,23.35
2018-06-30T23:16:07.786Z,24.12
2018-06-30T23:18:13.193Z,23.90
2018-06-30T23:20:18.528Z,23.39
2018-06-30T23:22:51.177Z,24.34
2018-06-30T23:24:56.523Z,24.32
2018-06-30T23:27:01.888Z,24.25
2018-06-30T23:29:07.308Z,23.93
2018-06-30T23:31:12.693Z,24.26
2018-06-30T23:33:18.085Z,23.66
2018-06-30T23:35:25.601Z,23.53
2018-06-30T23:37:30.939Z,24.38
2018-06-30T23:39:37.322Z,24.42
2018-06-30T23:41:42.929Z,23.72
2018-06-30T23:43:48.409Z,24.64
2018-06-30T23:45:54.655Z,24.81
2018-06-30T23:47:59.993Z,24.74
2018-06-30T23:50:05.455Z,23.96
2018-06-30T23:52:10.963Z,24.17
2018-06-30T23:54:16.374Z,24.75
2018-06-30T23:56:21.774Z,24.20
2018-06-30T23:58:27.225Z,24.24
